עמוד ראשי
METAR-TAF:

METAR-TAF

שדות תעופה :

נגסאקי, יפן

קו רוחב: 32-55N, קו אורך: 129-55E, גובה: 2מטר

תצפית מזג אוויר נוכחית

הדו"ח נערך לפני 8 שעות ו 52דקות, בשעה 12:00 UTC
רוח 3קשר מכיוון דרום/דרום-מזרח, משתנה בין דרום-מזרח ו דרום-מערב
טמפרטורת 27 צלסיוס
לחות 84%
לחץ 1012 hPa
ראות 10 קילומטר או יותר
מעט עננים בגובה 5000רגל
עננים פזורים

METAR: RJFU 171200Z 16003KT 130V220 9999 FEW050 SCT/// 27/24 Q1012

זמן: 05:52 (20:52 UTC)

תחזית

הדו"ח נערך לפני 3 שעות ו 47דקות, בשעה 17:05 UTC
תחזית בתוקף מ 17 ב 18 UTC עד 19 ב 00 UTC
רוח 10קשר מכיוון דרום/דרום-מזרח
ראות 10 קילומטר או יותר
מעט עננים בגובה 2000רגל
עננים בינוניים בגובה 3000רגל
יעשה מ
17 ב 23 UTC עד 18 ב 01 UTC
רוח 10קשר מכיוון דרום/דרום-מערב

TAF: RJFU 171705Z 1718/1900 15010KT 9999 FEW020 BKN030 BECMG 1723/1801 21010KT

תצפיות ותחזיות מזג אוויר לגבי יותר מ- 4,000 שדות תעופה ברחבי העולם. דוחות METAR ו- TAF.

התחנות הזמינות מסומנות בנקודות צהובות ואדומות על גבי המפה.

העבר את העכבר לנקודה הצבעונית על מנת לראות את שם התחנה.

לאחר מכן, לחץ כדי לראות את תוכן ואת תחזיות מזג האוויר.

כדי לשנות את המפה: לחץ על הכפתורים הירוקים עם הפלוס השחור כדי להתקרב; על הכפתור הירוק עם המקף כדי להתרחק; או בחיצים הירוקים למפות סמוכות.


METAR-TAF: